Terminal Aerodrome Forecast
Issued by NWS Jacksonville, FL

Home | Current Version | Previous Version | Text Only | Print | Product List | Glossary On
Versions: 1 2 3 4 5 6 7 8 9 10 11 12 13 14 15 16 17 18 19 20 21
000
FTUS42 KJAX 301300 AAA
TAFGNV
TAF AMD
KGNV 301307Z 3013/3112 VRB02KT 3SM BR OVC005
      TEMPO 3013/3015 1/4SM FG VV002
     FM301500 01004KT P6SM BKN015
     FM301600 34006KT P6SM VCSH SCT015 SCT040
     FM302300 33004KT P6SM SCT020 BKN040=

USA.gov is the U.S. government's official web portal to all federal, state and local government web resources and services.